Monday, September 24, 2018, 5:22 PM EDT
Back to Local

KOXB, Ocean City Municipal Airport

Location: Berlin, MD, United States Lat: 38.317
Local Time: 5:22 PM EDT (21:22 GMT) Lon: -75.117
Time Zone: US/Eastern Elev: 13 ft

Show me the last for .
Show Decoded

2018-09-24 16:53 METAR KOXB 242053Z AUTO 08016G25KT 10SM OVC013 21/18 A3030 RMK AO2 PK WND
                 09027/2013 RAE03 SLP261 P0000 60011 T02060183 58005 =
2018-09-24 15:53 METAR KOXB 241953Z AUTO 08017G24KT 4SM -RA BR OVC012 20/19 A3031 RMK AO2 PK WND
                 06027/1913 SLP264 P0002 T02000189 =
2018-09-24 15:37 METAR KOXB 241937Z AUTO 08014G22KT 3SM -RA BR OVC011 20/19 A3031 RMK AO2 PK WND
                 06027/1913 P0001 T02000189 =
2018-09-24 15:23 METAR KOXB 241923Z AUTO 08014G24KT 2 1/2SM -RA BR OVC011 20/19 A3032 RMK AO2 PK
                 WND 06027/1913 CIG 008V013 P0001 T02000189 =
2018-09-24 14:53 METAR KOXB 241853Z AUTO 08016G25KT 2SM -RA BR BKN009 OVC015 20/19 A3032 RMK AO2
                 CIG 007V011 SLP267 P0009 T02000189 =
2018-09-24 14:51 METAR KOXB 241851Z AUTO 08017G25KT 2SM -RA BR BKN009 OVC015 20/19 A3032 RMK AO2
                 CIG 007V011 P0008 =
2018-09-24 14:40 METAR KOXB 241840Z AUTO 08014G22KT 1 1/2SM RA BR BKN009 OVC013 20/19 A3032 RMK
                 AO2 P0008 T02000189 =
2018-09-24 14:33 METAR KOXB 241833Z AUTO 07015G21KT 2SM -RA BR BKN009 OVC013 20/19 A3033 RMK AO2
                 P0007 T02000189 =
2018-09-24 13:53 METAR KOXB 241753Z AUTO 07017KT 1SM RA BR BKN009 OVC013 20/19 A3034 RMK AO2
                 SLP273 P0014 60049 T02000189 10200 20194 50001 =
2018-09-24 13:30 METAR KOXB 241730Z AUTO 08014G21KT 2SM -RA BR BKN010 OVC016 20/19 A3034 RMK AO2
                 CIG 007V013 P0007 T02000189 =
2018-09-24 12:53 METAR KOXB 241653Z AUTO 07015G23KT 1 1/4SM RA BR BKN007 BKN014 OVC019 19/19
                 A3034 RMK AO2 SLP274 P0014 T01940189 =
2018-09-24 12:51 METAR KOXB 241651Z AUTO 08014G23KT 1 1/4SM RA BR BKN007 BKN014 OVC019 19/19
                 A3034 RMK AO2 P0014 =
2018-09-24 12:42 METAR KOXB 241642Z AUTO 08014G21KT 1 1/4SM RA BR SCT008 BKN011 OVC028 19/19
                 A3034 RMK AO2 P0012 T01940189 =
2018-09-24 11:53 METAR KOXB 241553Z AUTO 07013G21KT 1 3/4SM -RA BR BKN008 OVC014 19/19 A3034 RMK
                 AO2 SLP272 P0008 T01940189 =
2018-09-24 11:43 METAR KOXB 241543Z AUTO 07015G25KT 2 1/2SM -RA BR BKN008 OVC014 20/19 A3033 RMK
                 AO2 P0007 T02000189 =
2018-09-24 11:16 METAR KOXB 241516Z AUTO 07012G21KT 1 1/4SM RA BR BKN009 OVC014 19/19 A3033 RMK
                 AO2 P0003 T01940189 =
2018-09-24 11:06 METAR KOXB 241506Z AUTO 07012G20KT 2SM -RA BR BKN009 BKN013 OVC018 20/19 A3033
                 RMK AO2 CIG 007V011 P0001 T02000189 =
2018-09-24 10:53 METAR KOXB 241453Z AUTO 08015G21KT 4SM -RA BR BKN009 OVC016 19/19 A3034 RMK AO2
                 CIG 007V013 SLP272 P0002 60013 T01940189 53006 =
2018-09-24 10:11 METAR KOXB 241411Z AUTO 07011G22KT 3SM -RA BR BKN009 BKN012 OVC021 20/19 A3033
                 RMK AO2 CIG 006V011 P0001 T02000189 =
2018-09-24 09:53 METAR KOXB 241353Z AUTO 07018G26KT 3SM -RA BR FEW007 BKN013 OVC028 19/19 A3033
                 RMK AO2 PK WND 08026/1352 SLP269 P0005 T01940189 =
2018-09-24 09:50 METAR KOXB 241350Z AUTO 07014G22KT 3SM -RA BR SCT007 BKN013 OVC028 19/19 A3033
                 RMK AO2 P0005 =
2018-09-24 09:43 METAR KOXB 241343Z AUTO 07013G24KT 2 1/2SM -RA BR SCT007 BKN011 OVC025 20/19
                 A3032 RMK AO2 P0005 T02000189 =
2018-09-24 09:29 METAR KOXB 241329Z AUTO 08016G23KT 1 1/4SM RA BR FEW006 BKN013 OVC023 19/19
                 A3032 RMK AO2 P0004 T01940189 =
2018-09-24 09:22 METAR KOXB 241322Z AUTO 08016G22KT 1 1/2SM RA BR FEW006 BKN015 OVC023 19/18
                 A3033 RMK AO2 P0003 T01940183 =
2018-09-24 09:13 METAR KOXB 241313Z AUTO 07013G25KT 2 1/2SM -RA BR SCT009 BKN013 OVC027 19/18
                 A3032 RMK AO2 P0001 T01940183 =
2018-09-24 09:03 METAR KOXB 241303Z AUTO 08017G24KT 3SM -RA BR BKN009 BKN014 OVC024 19/18 A3032
                 RMK AO2 P0001 T01940183 =
2018-09-24 08:53 METAR KOXB 241253Z AUTO 07013G20KT 2 1/2SM -RA BR SCT008 BKN014 OVC019 19/18
                 A3032 RMK AO2 PK WND 07026/1220 SLP266 P0006 T01940183 =
2018-09-24 08:30 METAR KOXB 241230Z AUTO 07014G22KT 1 3/4SM -RA BR SCT007 BKN012 OVC025 19/18
                 A3031 RMK AO2 PK WND 07026/1220 P0005 T01940183 =
2018-09-24 08:15 METAR KOXB 241215Z AUTO 07014G24KT 1 1/4SM -RA BR BKN007 OVC016 19/18 A3030 RMK
                 AO2 P0003 T01940183 =
2018-09-24 07:53 METAR KOXB 241153Z AUTO 08015G22KT 1 3/4SM -RA BR SCT009 BKN012 OVC026 19/19
                 A3029 RMK AO2 SLP258 P0009 60070 70103 T01940189 10206 20189 51021 =
2018-09-24 07:38 METAR KOXB 241138Z AUTO 08015G21KT 3SM -RA BR FEW007 BKN018 OVC026 19/18 A3029
                 RMK AO2 P0007 T01940183 =
2018-09-24 07:30 METAR KOXB 241130Z AUTO 09014G22KT 3SM -RA BR SCT007 BKN011 OVC028 19/18 A3029
                 RMK AO2 P0007 T01940183 =
2018-09-24 07:23 METAR KOXB 241123Z AUTO 08015G24KT 3SM -RA BR BKN009 OVC018 19/18 A3029 RMK AO2
                 P0007 T01940183 =
2018-09-24 07:09 METAR KOXB 241109Z AUTO 07011G19KT 2SM RA BR SCT007 OVC014 19/19 A3028 RMK AO2
                 P0005 T01940189 =
2018-09-24 07:03 METAR KOXB 241103Z AUTO 07011G20KT 1 3/4SM RA BR BKN009 BKN016 OVC022 19/18
                 A3028 RMK AO2 CIG 007V012 P0003 T01940183 =
2018-09-24 07:00 METAR KOXB 241100Z AUTO 07011G20KT 1 3/4SM RA BR SCT009 BKN015 OVC020 19/18
                 A3028 RMK AO2 P0002 T01940183 =
2018-09-24 06:53 METAR KOXB 241053Z AUTO 06010G18KT 2 1/2SM RA BR SCT010 BKN015 OVC020 19/18
                 A3028 RMK AO2 SLP252 P0008 T01940183 =
2018-09-24 06:34 METAR KOXB 241034Z AUTO 07011KT 3SM -RA BR FEW009 SCT013 OVC020 19/18 A3027 RMK
                 AO2 P0005 T01940178 =
2018-09-24 06:26 METAR KOXB 241026Z AUTO 06011KT 3SM -RA BR SCT009 BKN014 OVC020 19/18 A3027 RMK
                 AO2 P0005 T01940183 =
2018-09-24 06:12 METAR KOXB 241012Z AUTO 06012G16KT 3SM -RA BR SCT015 BKN020 OVC025 19/18 A3026
                 RMK AO2 P0003 T01890178 =
2018-09-24 05:53 METAR KOXB 240953Z AUTO 08014G22KT 2 1/2SM -RA BR BKN016 OVC024 19/18 A3025 RMK
                 AO2 SLP243 P0007 T01940178 =
2018-09-24 05:11 METAR KOXB 240911Z AUTO 05011KT 3SM -RA BR OVC017 19/18 A3024 RMK AO2 P0003
                 T01940178 =
2018-09-24 04:53 METAR KOXB 240853Z AUTO 07012G21KT 2SM RA BR BKN015 OVC021 19/18 A3023 RMK AO2
                 SLP237 P0028 60046 T01940178 51009 =
2018-09-24 04:48 METAR KOXB 240848Z AUTO 07015G21KT 1 3/4SM +RA BR BKN016 OVC020 19/18 A3023 RMK
                 AO2 P0028 =
2018-09-24 04:06 METAR KOXB 240806Z AUTO 06009KT 1 3/4SM +RA BR OVC014 19/18 A3022 RMK AO2 P0007
                 T01940183 =
2018-09-24 03:53 METAR KOXB 240753Z AUTO 04010KT 5SM -RA BR OVC014 19/18 A3022 RMK AO2 SLP233
                 P0002 T01940183 =
2018-09-24 02:53 METAR KOXB 240653Z AUTO 06013G22KT 5SM -RA BR OVC012 20/18 A3021 RMK AO2 SLP228
                 P0016 T02000183 =
2018-09-24 02:44 METAR KOXB 240644Z AUTO 06013G22KT 5SM -RA BR OVC012 20/18 A3020 RMK AO2 P0015
                 T02000183 =
2018-09-24 02:30 METAR KOXB 240630Z AUTO 06011G22KT 2SM +RA BR OVC012 20/19 A3021 RMK AO2 P0012
                 T02000189 =
2018-09-24 02:03 METAR KOXB 240603Z AUTO 06013G21KT 5SM RA BR OVC013 20/18 A3021 RMK AO2 P0001
                 T02000183 =
2018-09-24 01:53 METAR KOXB 240553Z AUTO 06013G20KT 6SM -RA BR OVC015 20/18 A3021 RMK AO2 SLP228
                 P0006 60009 T02000183 10211 20200 50002 =
2018-09-24 01:40 METAR KOXB 240540Z AUTO 07013G24KT 6SM RA BR OVC015 20/18 A3021 RMK AO2 P0004
                 T02000183 =
2018-09-24 01:09 METAR KOXB 240509Z AUTO 05010KT 9SM -RA BKN013 OVC018 20/18 A3021 RMK AO2 P0000
                 T02000183 =
2018-09-24 00:53 METAR KOXB 240453Z AUTO 06012G18KT 7SM -RA BKN015 BKN019 OVC026 21/19 A3021 RMK
                 AO2 RAB23 SLP230 P0000 T02060189 402220189 =
2018-09-23 23:53 METAR KOXB 240353Z AUTO 07011G20KT 10SM SCT015 BKN027 OVC039 21/18 A3021 RMK AO2
                 SLP228 T02060183 =
2018-09-23 22:53 METAR KOXB 240253Z AUTO 07017G23KT 10SM SCT018 OVC025 21/18 A3020 RMK AO2
                 RAE0158 SLP226 P0000 60003 T02110178 50010 =
2018-09-23 21:53 METAR KOXB 240153Z AUTO 07013G20KT 8SM -RA OVC018 21/18 A3020 RMK AO2 RAB36
                 SLP226 P0001 T02060183 =
2018-09-23 20:53 METAR KOXB 240053Z AUTO 07010G20KT 10SM OVC016 21/18 A3019 RMK AO2 RAE26 SLP222
                 P0002 T02060183 =
2018-09-23 19:53 METAR KOXB 232353Z AUTO 07013G23KT 7SM -RA OVC020 22/19 A3017 RMK AO2 RAB48
                 SLP216 P0001 60001 T02170189 10222 20211 53008 =
2018-09-23 18:53 METAR KOXB 232253Z AUTO 08012G19KT 10SM OVC018 22/19 A3016 RMK AO2 RAB18E35
                 SLP213 P0000 T02170189 =
2018-09-23 18:38 METAR KOXB 232238Z AUTO 08013G20KT 10SM BKN018 OVC022 21/19 A3016 RMK AO2
                 RAB18E35 P0000 T02110194 =
2018-09-23 17:53 METAR KOXB 232153Z AUTO 06015G20KT 10SM BKN014 OVC019 21/19 A3015 RMK AO2 SLP210
                 T02110189 =

Support USWX by starting your Amazon purchase here.